Time;durP1;ratioP1;P1;durP2;ratioP2;P2;SDS_P1;SDS_P2;PMS_P1;PMS_P2;Temp;Humidity;BMP_temperature;BMP_pressure;BME280_temperature;BME280_humidity;BME280_pressure;Samples;Min_cycle;Max_cycle;Signal;HPM_P1;HPM_P2
2022/08/04 00:02:54;;;;;;;5.35;4.03;;;;;;;21.63;86.10;98065.13;5004061;28;20042;-76
2022/08/04 00:05:34;;;;;;;5.28;4.10;;;;;;;21.63;86.68;98067.09;4997593;28;20045;-76
2022/08/04 00:08:34;;;;;;;6.30;3.95;;;;;;;21.53;87.60;98062.09;4993304;28;20034;-75
2022/08/04 00:11:00;;;;;;;6.57;4.47;;;;;;;21.30;91.14;98059.22;5010872;28;20038;-76
2022/08/04 00:13:29;;;;;;;5.32;4.63;;;;;;;21.18;93.54;98046.22;5010777;28;20498;-75
2022/08/04 00:16:04;;;;;;;6.70;4.90;;;;;;;21.06;94.93;98049.09;5010405;28;20064;-74
2022/08/04 00:18:41;;;;;;;5.15;4.57;;;;;;;20.91;97.25;98047.13;5010175;28;20038;-75
2022/08/04 00:21:10;;;;;;;5.45;4.55;;;;;;;21.01;96.45;98045.78;5011270;28;20083;-76
2022/08/04 00:23:38;;;;;;;7.95;4.53;;;;;;;20.90;97.21;98039.13;5013442;28;20048;-75
2022/08/04 00:26:03;;;;;;;6.40;4.70;;;;;;;21.02;96.36;98053.75;5013886;28;20026;-73
2022/08/04 00:28:29;;;;;;;5.90;4.50;;;;;;;21.00;96.75;98055.28;5013827;28;20029;-74
2022/08/04 00:30:54;;;;;;;5.82;4.63;;;;;;;20.87;98.72;98051.00;5013895;28;20029;-74
2022/08/04 00:33:21;;;;;;;6.65;4.57;;;;;;;20.82;100.00;98055.69;5013708;28;20036;-74
2022/08/04 00:35:49;;;;;;;6.90;4.97;;;;;;;20.79;100.00;98050.03;5013589;28;20120;-75
2022/08/04 00:38:17;;;;;;;6.53;5.13;;;;;;;20.69;100.00;98045.00;5013559;28;20153;-75
2022/08/04 00:40:54;;;;;;;6.00;4.95;;;;;;;20.69;100.00;98050.56;5013245;28;20050;-74
2022/08/04 00:43:44;;;;;;;11.15;4.90;;;;;;;20.57;100.00;98059.00;4995889;28;20034;-75
2022/08/04 00:46:29;;;;;;;7.50;5.63;;;;;;;20.58;100.00;98053.06;5013448;28;20053;-74
2022/08/04 00:49:18;;;;;;;6.53;5.32;;;;;;;20.67;100.00;98052.91;5013358;28;20052;-74
2022/08/04 00:52:09;;;;;;;8.23;5.65;;;;;;;20.68;100.00;98060.06;5013264;28;20037;-74
2022/08/04 00:54:41;;;;;;;13.23;5.43;;;;;;;20.61;100.00;98051.56;5013177;28;20045;-74
2022/08/04 00:57:24;;;;;;;6.65;5.30;;;;;;;20.51;100.00;98054.88;5013194;28;20121;-74
2022/08/04 00:59:58;;;;;;;6.05;4.30;;;;;;;20.54;100.00;98056.94;5013038;28;20478;-74
2022/08/04 01:02:39;;;;;;;6.78;5.28;;;;;;;20.41;100.00;98060.94;5012856;28;20517;-75
2022/08/04 01:05:14;;;;;;;5.85;4.72;;;;;;;20.46;100.00;98047.59;5013247;28;20034;-75
2022/08/04 01:07:56;;;;;;;;;;;;;;;20.47;100.00;98062.28;5013593;28;20030;-74
2022/08/04 01:10:57;;;;;;;7.32;5.03;;;;;;;20.51;100.00;98061.22;5012899;28;19920;-75
2022/08/04 01:13:28;;;;;;;9.98;5.78;;;;;;;20.48;100.00;98061.13;5012755;28;20113;-74
2022/08/04 01:15:59;;;;;;;9.38;5.43;;;;;;;20.51;100.00;98057.66;5013004;28;20026;-75
2022/08/04 01:19:20;;;;;;;5.93;4.65;;;;;;;20.43;100.00;98053.03;5012904;28;20050;-76
2022/08/04 01:22:22;;;;;;;8.07;5.03;;;;;;;20.40;100.00;98053.75;4932846;29;20047;-74
2022/08/04 01:25:22;;;;;;;9.77;4.68;;;;;;;20.43;100.00;98062.19;5012689;28;20084;-75
2022/08/04 01:27:56;;;;;;;11.25;5.35;;;;;;;20.51;100.00;98057.66;4995011;28;20037;-75
2022/08/04 01:30:25;;;;;;;7.53;5.00;;;;;;;20.43;100.00;98048.31;5012557;28;20029;-74
2022/08/04 01:33:07;;;;;;;6.97;4.68;;;;;;;20.45;100.00;98042.41;5012407;28;20271;-76
2022/08/04 01:35:46;;;;;;;7.07;4.90;;;;;;;20.41;100.00;98045.09;5012624;28;20045;-74
2022/08/04 01:38:30;;;;;;;6.40;4.88;;;;;;;20.41;100.00;98050.63;4994969;28;20470;-75
2022/08/04 01:41:02;;;;;;;7.15;4.82;;;;;;;20.36;100.00;98047.31;5012323;28;20049;-75
2022/08/04 01:43:29;;;;;;;7.97;5.15;;;;;;;20.24;100.00;98043.41;5017316;28;20046;-75
2022/08/04 01:45:57;;;;;;;7.22;4.57;;;;;;;20.07;100.00;98049.31;5018078;28;20029;-75
2022/08/04 01:48:25;;;;;;;7.20;5.20;;;;;;;20.11;100.00;98050.19;5015998;28;20041;-76
2022/08/04 01:50:57;;;;;;;5.88;4.82;;;;;;;20.08;100.00;98039.78;5012399;28;20029;-74
2022/08/04 01:53:30;;;;;;;6.40;4.90;;;;;;;20.07;100.00;98042.94;5012379;28;20022;-74
2022/08/04 01:55:56;;;;;;;6.05;4.90;;;;;;;19.99;100.00;98035.56;5012321;28;20061;-73
2022/08/04 01:58:28;;;;;;;5.80;4.50;;;;;;;19.93;100.00;98034.19;5012044;28;20068;-74
2022/08/04 02:01:01;;;;;;;5.75;4.40;;;;;;;20.02;100.00;98038.44;5011774;28;20494;-74
2022/08/04 02:03:26;;;;;;;6.32;5.32;;;;;;;20.07;100.00;98040.97;4994919;28;20030;-74
2022/08/04 02:06:09;;;;;;;6.60;4.95;;;;;;;20.09;100.00;98033.09;5012119;28;20029;-73
2022/08/04 02:08:43;;;;;;;6.65;4.65;;;;;;;20.05;100.00;98034.94;5011854;28;20025;-76
2022/08/04 02:11:15;;;;;;;6.80;5.07;;;;;;;19.97;100.00;98022.03;5011915;28;20191;-74
2022/08/04 02:13:50;;;;;;;5.97;4.50;;;;;;;19.98;100.00;98032.00;5011726;28;20032;-75
2022/08/04 02:16:19;;;;;;;6.82;4.72;;;;;;;19.88;100.00;98024.16;4994311;28;20069;-74
2022/08/04 02:19:03;;;;;;;7.82;5.07;;;;;;;19.85;100.00;98027.66;5012122;28;20422;-74
2022/08/04 02:21:30;;;;;;;8.82;5.22;;;;;;;19.75;100.00;98028.16;5015827;28;20483;-76
2022/08/04 02:24:06;;;;;;;9.77;5.45;;;;;;;19.80;100.00;98027.13;4995648;28;20022;-73
2022/08/04 02:26:34;;;;;;;9.55;5.97;;;;;;;19.73;100.00;98030.50;5011450;28;20030;-74
2022/08/04 02:29:15;;;;;;;8.95;6.15;;;;;;;19.67;100.00;98031.91;5011456;28;20029;-75
2022/08/04 02:31:43;;;;;;;11.07;7.25;;;;;;;19.67;100.00;98027.13;4993837;28;20026;-74
2022/08/04 02:34:22;;;;;;;12.52;7.80;;;;;;;19.59;100.00;98038.41;5011401;28;20022;-75
2022/08/04 02:36:50;;;;;;;11.23;7.53;;;;;;;19.52;100.00;98027.88;5011466;28;20026;-75
2022/08/04 02:39:18;;;;;;;15.82;8.45;;;;;;;19.52;100.00;98024.31;5011244;28;20048;-73
2022/08/04 02:41:46;;;;;;;15.00;8.10;;;;;;;19.47;100.00;98022.59;5011478;28;20084;-75
2022/08/04 02:44:12;;;;;;;13.05;7.43;;;;;;;19.40;100.00;98027.94;5010861;28;20088;-75
2022/08/04 02:46:39;;;;;;;10.85;6.78;;;;;;;19.43;100.00;98029.19;5011233;28;20025;-75
2022/08/04 02:49:09;;;;;;;10.77;6.20;;;;;;;19.39;100.00;98033.81;5011293;28;20060;-74
2022/08/04 02:51:39;;;;;;;10.30;6.05;;;;;;;19.41;100.00;98034.28;5011399;28;20030;-74
2022/08/04 02:54:06;;;;;;;9.15;6.10;;;;;;;19.33;100.00;98027.69;5011140;28;20498;-74
2022/08/04 02:56:34;;;;;;;8.18;6.10;;;;;;;19.48;100.00;98028.97;5011250;28;20034;-74
2022/08/04 02:59:00;;;;;;;9.43;6.00;;;;;;;19.43;100.00;98034.75;5011025;28;20033;-75
2022/08/04 03:01:26;;;;;;;11.68;6.88;;;;;;;19.49;100.00;98030.56;5011043;28;20034;-74
2022/08/04 03:03:54;;;;;;;10.30;6.03;;;;;;;19.43;100.00;98024.44;5011055;28;20040;-75
2022/08/04 03:06:44;;;;;;;11.60;6.40;;;;;;;19.42;100.00;98033.16;5011072;28;20041;-75
2022/08/04 03:09:27;;;;;;;8.07;5.93;;;;;;;19.63;100.00;98033.75;5010782;28;20549;-75
2022/08/04 03:12:19;;;;;;;8.85;6.35;;;;;;;19.53;100.00;98031.47;5010743;28;20076;-75
2022/08/04 03:15:25;;;;;;;7.15;6.13;;;;;;;19.31;100.00;98027.22;5010143;28;20103;-73
2022/08/04 03:18:13;;;;;;;9.52;6.45;;;;;;;19.29;100.00;98028.75;5010809;28;20034;-75
2022/08/04 03:21:03;;;;;;;8.65;6.05;;;;;;;19.32;100.00;98031.63;5010453;28;20030;-75
2022/08/04 03:23:52;;;;;;;9.02;6.10;;;;;;;19.15;100.00;98010.50;5010678;28;20061;-75
2022/08/04 03:26:38;;;;;;;12.07;6.57;;;;;;;19.16;100.00;98028.78;5010509;28;20470;-75
2022/08/04 03:29:32;;;;;;;9.95;6.80;;;;;;;19.21;100.00;98028.53;5010701;28;20053;-74
2022/08/04 03:32:15;;;;;;;17.85;8.35;;;;;;;19.31;100.00;98027.22;5010697;28;20061;-75
2022/08/04 03:35:10;;;;;;;11.40;7.57;;;;;;;19.30;100.00;98024.78;5010497;28;20026;-75
2022/08/04 03:38:03;;;;;;;13.40;7.43;;;;;;;19.29;100.00;98025.97;5010551;28;20088;-75
2022/08/04 03:40:31;;;;;;;8.88;6.80;;;;;;;19.29;100.00;98031.53;5010320;28;20060;-74
2022/08/04 03:43:21;;;;;;;8.23;5.93;;;;;;;19.22;100.00;98032.91;5010452;28;20376;-73
2022/08/04 03:46:26;;;;;;;11.23;6.55;;;;;;;19.26;100.00;98019.94;5010420;28;20057;-76
2022/08/04 03:49:09;;;;;;;8.85;5.43;;;;;;;19.30;100.00;98027.56;5010531;28;20026;-73
2022/08/04 03:55:22;;;;;;;7.53;5.63;;;;;;;19.21;100.00;98014.66;5010478;28;20096;-73
2022/08/04 03:58:23;;;;;;;15.13;7.95;;;;;;;19.27;100.00;98023.53;5014144;28;20034;-76
2022/08/04 04:01:11;;;;;;;13.00;8.75;;;;;;;19.31;100.00;98020.88;5014317;28;20034;-74
2022/08/04 04:03:51;;;;;;;12.88;8.38;;;;;;;19.29;100.00;98017.66;5014108;28;20046;-74
2022/08/04 04:06:57;;;;;;;14.02;8.18;;;;;;;19.32;100.00;98017.75;5014164;28;20049;-74
2022/08/04 04:09:48;;;;;;;12.63;7.88;;;;;;;19.37;100.00;98023.06;4996587;28;20402;-75
2022/08/04 04:12:38;;;;;;;12.77;7.55;;;;;;;19.43;100.00;98023.63;5013908;28;20036;-75
2022/08/04 04:15:30;;;;;;;21.58;8.50;;;;;;;19.52;100.00;98035.41;5014031;28;20026;-74
2022/08/04 04:18:34;;;;;;;15.27;7.93;;;;;;;19.61;100.00;98033.28;5013905;28;20216;-74
2022/08/04 04:21:30;;;;;;;10.30;7.68;;;;;;;19.77;100.00;98036.94;4934131;29;20063;-74
2022/08/04 04:24:15;;;;;;;13.48;5.88;;;;;;;19.73;100.00;98041.59;5013250;28;20128;-74
2022/08/04 04:27:12;;;;;;;13.05;5.97;;;;;;;19.75;100.00;98036.50;5013705;28;20038;-74
2022/08/04 04:29:56;;;;;;;7.15;5.30;;;;;;;19.78;100.00;98044.09;4953499;28;20037;-74
2022/08/04 04:32:34;;;;;;;7.22;5.28;;;;;;;19.87;100.00;98041.16;4996491;28;20204;-74
2022/08/04 04:35:17;;;;;;;6.95;5.47;;;;;;;19.85;100.00;98030.44;5014728;28;20080;-75
2022/08/04 04:37:55;;;;;;;9.35;5.00;;;;;;;20.00;100.00;98049.09;5018781;28;20038;-75
2022/08/04 04:40:31;;;;;;;6.97;5.30;;;;;;;20.14;100.00;98051.47;5013717;28;20049;-74
2022/08/04 04:43:12;;;;;;;6.57;5.00;;;;;;;20.93;100.00;98050.34;4996015;28;20029;-75
2022/08/04 04:45:56;;;;;;;6.18;5.38;;;;;;;21.61;100.00;98063.88;5013441;28;20787;-74
2022/08/04 04:48:29;;;;;;;5.47;4.57;;;;;;;22.75;96.33;98060.19;5013372;28;20076;-75
2022/08/04 04:51:19;;;;;;;5.78;4.80;;;;;;;22.63;95.16;98059.53;5013437;28;20593;-75
2022/08/04 04:54:26;;;;;;;6.18;5.03;;;;;;;21.38;100.00;98062.97;5013009;28;20134;-75
2022/08/04 04:57:17;;;;;;;6.32;4.63;;;;;;;20.81;100.00;98064.38;5013243;28;20042;-74
2022/08/04 04:59:58;;;;;;;7.22;5.22;;;;;;;20.71;100.00;98062.13;5011932;28;20048;-74
2022/08/04 05:03:01;;;;;;;5.93;5.25;;;;;;;20.82;100.00;98052.09;5013350;28;20030;-75
2022/08/04 05:05:39;;;;;;;9.55;4.60;;;;;;;20.99;100.00;98054.47;5013094;28;20030;-74
2022/08/04 05:08:22;;;;;;;9.43;4.97;;;;;;;21.15;100.00;98058.06;5012589;28;20030;-75
2022/08/04 05:10:58;;;;;;;8.10;4.55;;;;;;;21.27;100.00;98060.72;5012998;28;20034;-74
2022/08/04 05:13:52;;;;;;;7.47;5.38;;;;;;;21.58;100.00;98054.25;4995271;28;20088;-74
2022/08/04 05:16:32;;;;;;;5.82;4.72;;;;;;;21.31;100.00;98061.63;5013225;28;20499;-75
2022/08/04 05:19:27;;;;;;;7.82;5.03;;;;;;;21.66;100.00;98058.03;5012974;28;20034;-74
2022/08/04 05:22:00;;;;;;;8.25;5.53;;;;;;;22.17;96.81;98065.09;4995098;28;20382;-75
2022/08/04 05:24:27;;;;;;;9.75;5.70;;;;;;;22.10;96.05;98072.50;5012876;28;20483;-76
2022/08/04 05:27:00;;;;;;;12.60;4.80;;;;;;;22.01;95.93;98074.69;5012540;28;20071;-75
2022/08/04 05:29:33;;;;;;;10.68;5.10;;;;;;;21.91;95.52;98064.94;5012654;28;20033;-74
2022/08/04 05:32:03;;;;;;;7.53;5.07;;;;;;;22.62;90.42;98063.50;5012639;28;20489;-75
2022/08/04 05:34:32;;;;;;;7.43;4.80;;;;;;;22.37;91.31;98068.63;5012500;28;20367;-75
2022/08/04 05:37:02;;;;;;;5.70;4.85;;;;;;;22.15;91.90;98061.84;5012631;28;20028;-75
2022/08/04 05:39:30;;;;;;;6.88;5.50;;;;;;;22.13;92.25;98067.00;4994754;28;20081;-75
2022/08/04 05:41:57;;;;;;;10.15;5.00;;;;;;;21.91;93.67;98059.38;5012604;28;20475;-75
2022/08/04 05:44:25;;;;;;;7.40;5.20;;;;;;;21.88;94.50;98063.72;5012478;28;20026;-75
2022/08/04 05:46:54;;;;;;;6.97;4.45;;;;;;;21.72;95.67;98059.34;5012348;28;20574;-75
2022/08/04 05:49:23;;;;;;;9.38;5.45;;;;;;;21.85;95.01;98063.59;5012117;28;20040;-74
2022/08/04 05:51:50;;;;;;;6.53;5.07;;;;;;;22.04;93.17;98066.41;5012408;28;20030;-73
2022/08/04 05:54:18;;;;;;;9.13;5.40;;;;;;;22.16;92.15;98057.06;5012109;28;20064;-75
2022/08/04 05:56:43;;;;;;;8.50;5.35;;;;;;;22.18;91.06;98049.94;5012081;28;20479;-75
2022/08/04 05:59:11;;;;;;;6.93;5.20;;;;;;;22.28;90.35;98054.94;5012063;28;20065;-74
2022/08/04 06:01:38;;;;;;;9.45;5.57;;;;;;;22.40;89.58;98049.19;5011815;28;20517;-73
2022/08/04 06:04:05;;;;;;;9.55;5.32;;;;;;;22.88;86.59;98047.66;5011791;28;20104;-75
2022/08/04 06:06:31;;;;;;;7.85;5.63;;;;;;;22.96;85.30;98056.97;5012061;28;20382;-75
2022/08/04 06:08:58;;;;;;;10.55;5.47;;;;;;;23.64;81.53;98047.63;5011940;28;20030;-75
2022/08/04 06:11:27;;;;;;;9.40;5.65;;;;;;;23.95;79.82;98061.19;5011956;28;20026;-74
2022/08/04 06:13:59;;;;;;;7.65;4.85;;;;;;;23.61;80.59;98054.78;5011968;28;20479;-75
2022/08/04 06:16:28;;;;;;;10.48;5.07;;;;;;;23.24;82.87;98056.59;5011782;28;20044;-76
2022/08/04 06:18:56;;;;;;;8.93;5.05;;;;;;;23.21;83.17;98052.56;4998403;28;20026;-75
2022/08/04 06:21:25;;;;;;;10.98;5.15;;;;;;;23.44;82.54;98053.34;5016183;28;20258;-74
2022/08/04 06:23:54;;;;;;;6.72;4.60;;;;;;;23.61;81.66;98053.97;5015391;28;20446;-75
2022/08/04 06:26:22;;;;;;;9.43;5.40;;;;;;;23.69;80.86;98047.28;5011504;28;20022;-75
2022/08/04 06:28:50;;;;;;;6.88;4.82;;;;;;;23.85;79.67;98050.69;5011561;28;20025;-73
2022/08/04 06:31:41;;;;;;;5.65;5.00;;;;;;;23.92;79.30;98045.19;5011419;28;20033;-75
2022/08/04 06:34:07;;;;;;;8.88;5.82;;;;;;;23.77;79.00;98057.38;5011155;28;20037;-75
2022/08/04 06:36:37;;;;;;;10.52;5.10;;;;;;;23.60;79.60;98055.13;4993721;28;20418;-75
2022/08/04 06:39:04;;;;;;;8.88;4.97;;;;;;;23.76;77.70;98055.75;5011222;28;20042;-75
2022/08/04 06:41:30;;;;;;;8.95;4.85;;;;;;;24.07;75.64;98065.72;5011283;28;20030;-74
2022/08/04 06:44:01;;;;;;;7.80;5.70;;;;;;;24.06;75.76;98055.75;5011429;28;20541;-74
2022/08/04 06:46:28;;;;;;;9.73;4.82;;;;;;;24.24;75.28;98060.38;5011093;28;20054;-74
2022/08/04 06:48:54;;;;;;;7.25;5.55;;;;;;;24.69;73.10;98052.81;5011410;28;20379;-75
2022/08/04 06:51:21;;;;;;;8.75;5.13;;;;;;;24.60;72.98;98053.16;5013993;28;20037;-75
2022/08/04 06:53:47;;;;;;;8.75;5.32;;;;;;;24.46;74.02;98056.59;5017185;28;20096;-74
2022/08/04 06:56:15;;;;;;;9.18;5.07;;;;;;;24.40;73.76;98041.34;5011098;28;20426;-74
2022/08/04 06:58:41;;;;;;;9.70;5.50;;;;;;;24.79;71.51;98052.13;5011053;28;20032;-75
2022/08/04 07:01:07;;;;;;;8.95;5.20;;;;;;;24.95;70.94;98055.50;5010913;28;20029;-75
2022/08/04 07:03:33;;;;;;;6.95;4.82;;;;;;;24.92;70.69;98062.66;5010820;28;20037;-76
2022/08/04 07:05:59;;;;;;;10.25;5.65;;;;;;;24.93;70.81;98057.88;5010902;28;20030;-75
2022/08/04 07:08:25;;;;;;;8.88;5.88;;;;;;;24.98;70.43;98052.72;5010976;28;20022;-74
2022/08/04 07:10:53;;;;;;;8.10;5.55;;;;;;;25.44;68.38;98066.25;5011151;28;20030;-71
2022/08/04 07:13:21;;;;;;;8.43;5.47;;;;;;;25.18;68.71;98058.06;5010825;28;20100;-72
2022/08/04 07:15:48;;;;;;;7.60;5.30;;;;;;;25.29;68.24;98056.94;5011158;28;20026;-71
2022/08/04 07:18:14;;;;;;;13.10;4.93;;;;;;;25.87;66.97;98056.13;5010945;28;20109;-71
2022/08/04 07:20:41;;;;;;;9.05;5.55;;;;;;;26.36;64.68;98061.94;4993238;28;20121;-72
2022/08/04 07:23:08;;;;;;;8.18;4.95;;;;;;;26.55;63.62;98057.97;4993439;28;20030;-72
2022/08/04 07:25:35;;;;;;;9.68;4.93;;;;;;;26.59;62.89;98055.97;5010949;28;20025;-73
2022/08/04 07:28:00;;;;;;;9.68;5.15;;;;;;;26.90;61.25;98046.81;5010864;28;20030;-73
2022/08/04 07:30:28;;;;;;;11.80;5.20;;;;;;;27.14;60.56;98045.19;5010833;28;20041;-73
2022/08/04 07:32:54;;;;;;;8.63;4.60;;;;;;;27.13;60.65;98055.59;5010753;28;20037;-73
2022/08/04 07:35:21;;;;;;;13.13;4.90;;;;;;;27.27;59.85;98043.56;5010685;28;20026;-73
2022/08/04 07:37:46;;;;;;;8.10;5.05;;;;;;;27.04;59.98;98045.97;5010594;28;20398;-73
2022/08/04 07:40:12;;;;;;;9.30;4.85;;;;;;;26.90;61.07;98048.81;5010909;28;20050;-73
2022/08/04 07:42:38;;;;;;;9.27;5.68;;;;;;;27.10;60.21;98048.00;5010532;28;20041;-74
2022/08/04 07:45:03;;;;;;;7.80;5.13;;;;;;;26.97;60.05;98046.78;4993365;28;20168;-73
2022/08/04 07:47:29;;;;;;;6.55;4.68;;;;;;;27.32;59.06;98037.53;5011563;28;20034;-73
2022/08/04 07:49:55;;;;;;;5.00;4.32;;;;;;;27.52;58.18;98043.53;4993321;28;20018;-74
2022/08/04 07:52:22;;;;;;;7.78;4.68;;;;;;;27.94;55.18;98039.81;5010698;28;20030;-74
2022/08/04 07:54:49;;;;;;;5.53;4.38;;;;;;;28.27;54.10;98056.16;5010815;28;20084;-74
2022/08/04 07:57:17;;;;;;;13.10;5.50;;;;;;;28.36;53.66;98041.63;5010675;28;20132;-74
2022/08/04 07:59:43;;;;;;;6.57;4.60;;;;;;;29.38;50.90;98054.19;5009702;28;20033;-73
2022/08/04 08:02:09;;;;;;;6.30;4.93;;;;;;;30.19;48.10;98047.66;5009336;28;20034;-74
2022/08/04 08:04:35;;;;;;;4.80;4.30;;;;;;;30.18;47.77;98043.22;5010317;28;20026;-74
2022/08/04 08:07:00;;;;;;;4.80;4.30;;;;;;;31.09;45.82;98048.78;5010345;28;20394;-74
2022/08/04 08:09:25;;;;;;;6.57;4.25;;;;;;;33.25;40.99;98050.78;5009727;28;20509;-76
2022/08/04 08:11:53;;;;;;;8.10;3.95;;;;;;;35.53;36.44;98055.72;5008231;28;20026;-74
2022/08/04 08:14:19;;;;;;;5.97;4.38;;;;;;;38.33;31.10;98051.78;5008484;28;20021;-75
2022/08/04 08:16:45;;;;;;;6.28;4.50;;;;;;;39.66;29.03;98064.97;5008569;28;20506;-73
2022/08/04 08:19:12;;;;;;;6.22;4.32;;;;;;;39.48;29.17;98057.25;5008651;28;20026;-74
2022/08/04 08:21:38;;;;;;;4.43;3.92;;;;;;;41.24;27.02;98057.50;5009339;28;20403;-71
2022/08/04 08:24:04;;;;;;;10.85;4.40;;;;;;;43.43;23.83;98066.78;4991641;28;20037;-71
2022/08/04 08:26:29;;;;;;;8.05;5.00;;;;;;;43.76;22.88;98066.97;4992114;28;20034;-74
2022/08/04 08:28:56;;;;;;;5.65;4.40;;;;;;;44.19;22.13;98054.06;5010430;28;20028;-73
2022/08/04 08:31:21;;;;;;;6.88;4.50;;;;;;;43.21;23.15;98053.78;5010384;28;20364;-73
2022/08/04 08:33:49;;;;;;;8.00;4.13;;;;;;;39.86;26.56;98054.47;4992354;28;20029;-74
2022/08/04 08:36:26;;;;;;;4.07;3.67;;;;;;;38.65;27.79;98044.59;5009949;28;20034;-72
2022/08/04 08:38:59;;;;;;;5.85;4.03;;;;;;;39.60;27.00;98039.03;5009657;28;20030;-74
2022/08/04 08:41:42;;;;;;;4.63;4.03;;;;;;;41.46;24.61;98040.63;5010000;28;20065;-72
2022/08/04 08:44:34;;;;;;;4.78;3.95;;;;;;;41.22;24.23;98037.13;5013633;28;20030;-75
2022/08/04 08:47:31;;;;;;;4.68;3.90;;;;;;;41.75;23.94;98039.69;5013416;28;20048;-72
2022/08/04 08:50:16;;;;;;;3.83;3.42;;;;;;;42.05;23.34;98047.66;5013556;28;20038;-73
2022/08/04 08:53:08;;;;;;;5.85;3.55;;;;;;;40.65;24.89;98040.38;5013396;28;20506;-74
2022/08/04 08:55:58;;;;;;;4.93;4.00;;;;;;;36.90;29.08;98026.97;5013159;28;20030;-73
2022/08/04 08:58:57;;;;;;;11.88;3.78;;;;;;;38.34;27.52;98024.00;4995707;28;20034;-73
2022/08/04 09:01:46;;;;;;;4.28;3.88;;;;;;;35.95;29.75;98024.97;4995403;28;20486;-72
2022/08/04 09:04:52;;;;;;;4.13;3.67;;;;;;;36.05;30.57;98014.44;5013339;28;20084;-74
2022/08/04 09:07:47;;;;;;;5.10;3.75;;;;;;;33.63;35.09;98000.72;5018780;28;20057;-74
2022/08/04 09:10:25;;;;;;;5.28;3.60;;;;;;;32.48;36.07;98006.03;4997022;28;20037;-73
2022/08/04 09:13:00;;;;;;;5.22;3.88;;;;;;;33.32;35.07;98002.38;4995346;28;20029;-73
2022/08/04 09:15:56;;;;;;;6.57;4.20;;;;;;;32.93;35.86;98003.34;5012654;28;20124;-73
2022/08/04 09:18:21;;;;;;;;;;;;;;;32.58;37.15;98005.00;5012949;28;20537;-73
2022/08/04 09:20:55;;;;;;;6.43;4.23;;;;;;;32.17;37.32;97997.00;4994996;28;19921;-73
2022/08/04 09:23:55;;;;;;;5.10;3.60;;;;;;;31.88;38.26;97995.19;5012671;28;20040;-72
2022/08/04 09:26:47;;;;;;;7.60;4.28;;;;;;;32.17;37.23;97996.22;5012565;28;20046;-73
2022/08/04 09:29:29;;;;;;;6.00;4.40;;;;;;;31.61;38.34;97984.81;5012544;28;20122;-73
2022/08/04 09:32:13;;;;;;;6.07;3.60;;;;;;;31.55;38.20;97989.38;5012397;28;20030;-74
2022/08/04 09:35:00;;;;;;;5.35;4.65;;;;;;;31.90;37.40;97993.50;5012591;28;20041;-74
2022/08/04 09:37:43;;;;;;;7.43;3.75;;;;;;;32.20;37.26;97995.34;4994614;28;20026;-74
2022/08/04 09:40:31;;;;;;;4.30;3.83;;;;;;;31.44;39.11;97996.44;5012324;28;20058;-72
2022/08/04 09:43:21;;;;;;;4.70;3.53;;;;;;;31.09;39.67;97987.38;5012430;28;20039;-73
2022/08/04 09:46:12;;;;;;;6.00;4.75;;;;;;;31.69;38.24;97986.28;5012346;28;20026;-72
2022/08/04 09:48:53;;;;;;;5.07;3.95;;;;;;;31.51;38.21;97983.00;5012073;28;20133;-73
2022/08/04 09:51:35;;;;;;;5.38;3.83;;;;;;;31.35;38.49;97980.06;5012097;28;20038;-75
2022/08/04 09:54:11;;;;;;;6.25;3.72;;;;;;;32.04;37.92;97979.09;5011186;28;20057;-74
2022/08/04 09:57:03;;;;;;;7.05;4.13;;;;;;;31.97;37.63;97975.59;5012235;28;20084;-72
2022/08/04 10:00:01;;;;;;;5.03;4.15;;;;;;;32.39;37.36;97974.69;5012113;28;20022;-73
2022/08/04 10:02:34;;;;;;;7.60;3.78;;;;;;;32.17;37.17;97968.69;5011872;28;20121;-72
2022/08/04 10:05:04;;;;;;;4.30;3.42;;;;;;;31.67;37.80;97966.09;5011696;28;20060;-72
2022/08/04 10:07:55;;;;;;;4.82;3.75;;;;;;;31.63;37.88;97961.75;5011565;28;20516;-74
2022/08/04 10:10:41;;;;;;;4.15;3.60;;;;;;;31.95;38.02;97961.09;5011673;28;20057;-72
2022/08/04 10:13:45;;;;;;;5.07;3.78;;;;;;;31.65;37.39;97965.72;5011715;28;20487;-73
2022/08/04 10:16:39;;;;;;;5.18;4.05;;;;;;;32.00;38.14;97954.91;4981550;28;20041;-73
2022/08/04 10:19:14;;;;;;;4.65;3.80;;;;;;;31.89;37.47;97966.44;5011558;28;20132;-74
2022/08/04 10:22:06;;;;;;;5.78;4.18;;;;;;;32.52;36.69;97955.72;5011352;28;20072;-74
2022/08/04 10:25:22;;;;;;;4.43;3.50;;;;;;;32.43;36.09;97952.72;5011350;28;20049;-73
2022/08/04 10:27:55;;;;;;;4.80;3.58;;;;;;;32.28;37.32;97945.78;4977613;28;20104;-73
2022/08/04 10:30:23;;;;;;;9.93;4.28;;;;;;;31.49;39.02;97945.84;4993859;28;20174;-74
2022/08/04 10:32:57;;;;;;;4.90;4.40;;;;;;;31.23;39.61;97939.03;5011543;28;20026;-74
2022/08/04 10:35:25;;;;;;;5.05;3.95;;;;;;;31.49;38.77;97926.03;5011562;28;20514;-74
2022/08/04 10:38:06;;;;;;;5.53;4.18;;;;;;;31.53;38.44;97935.25;5011295;28;20033;-74
2022/08/04 10:41:12;;;;;;;5.15;4.15;;;;;;;32.00;37.61;97929.41;5011148;28;20096;-73
2022/08/04 10:43:47;;;;;;;4.00;3.53;;;;;;;32.30;36.29;97926.31;4931271;29;20042;-74
2022/08/04 10:46:45;;;;;;;4.35;3.72;;;;;;;32.94;34.77;97933.25;4931677;29;20036;-73
2022/08/04 10:49:36;;;;;;;4.50;3.88;;;;;;;32.32;36.88;97929.50;4993585;28;20038;-75
2022/08/04 10:52:21;;;;;;;5.47;4.07;;;;;;;32.59;36.18;97915.13;5017766;28;20022;-76
2022/08/04 10:55:11;;;;;;;4.32;3.90;;;;;;;33.04;35.36;97918.00;5018685;28;20126;-74
2022/08/04 10:57:43;;;;;;;5.10;4.03;;;;;;;33.29;35.21;97916.13;5011338;28;20029;-73
2022/08/04 11:00:18;;;;;;;5.13;3.75;;;;;;;33.28;35.35;97913.72;4993186;28;20054;-75
2022/08/04 11:02:52;;;;;;;4.85;4.22;;;;;;;32.88;35.84;97910.31;5010925;28;20034;-73
2022/08/04 11:05:27;;;;;;;4.80;3.90;;;;;;;33.30;34.99;97902.75;5010847;28;20495;-73
2022/08/04 11:07:59;;;;;;;5.65;4.30;;;;;;;32.54;35.65;97896.59;5010716;28;20282;-74
2022/08/04 11:10:29;;;;;;;4.32;3.47;;;;;;;32.80;34.84;97901.19;5010808;28;20034;-74
2022/08/04 11:13:03;;;;;;;4.47;3.95;;;;;;;32.98;35.08;97906.41;5010533;28;20109;-74
2022/08/04 11:15:56;;;;;;;6.55;4.30;;;;;;;33.37;34.08;97896.84;5010863;28;20119;-74
2022/08/04 11:18:48;;;;;;;6.68;3.90;;;;;;;33.75;33.34;97909.13;5010506;28;20116;-74
2022/08/04 11:21:19;;;;;;;4.10;3.60;;;;;;;34.08;32.89;97903.28;5010045;28;20045;-74
2022/08/04 11:23:53;;;;;;;5.53;3.40;;;;;;;33.28;33.04;97896.69;5014113;28;20112;-73
2022/08/04 11:26:23;;;;;;;;;;;;;;;33.32;33.53;97894.56;5012865;28;20103;-74
2022/08/04 11:29:16;;;;;;;4.00;3.40;;;;;;;33.62;32.53;97891.28;5010863;28;19968;-73
2022/08/04 11:31:46;;;;;;;6.05;3.53;;;;;;;33.57;32.43;97886.13;5010238;28;20025;-74
2022/08/04 11:34:21;;;;;;;5.50;3.63;;;;;;;32.59;31.86;97887.59;5010562;28;20033;-74
2022/08/04 11:37:04;;;;;;;5.88;3.50;;;;;;;32.41;31.85;97892.88;4992920;28;20026;-73
2022/08/04 11:39:47;;;;;;;4.35;3.65;;;;;;;32.96;31.79;97882.56;4992720;28;20073;-74
2022/08/04 11:42:36;;;;;;;4.05;3.40;;;;;;;33.31;31.06;97887.28;5010159;28;20036;-75
2022/08/04 11:45:07;;;;;;;4.78;3.55;;;;;;;33.80;29.99;97885.84;5010442;28;20451;-74
2022/08/04 11:47:43;;;;;;;3.97;3.10;;;;;;;34.17;28.76;97881.50;5010363;28;20108;-74
2022/08/04 11:50:49;;;;;;;3.60;3.30;;;;;;;34.10;29.15;97881.72;5010219;28;20080;-73
2022/08/04 11:53:19;;;;;;;4.47;3.40;;;;;;;33.76;29.37;97885.19;4971511;28;20042;-73
2022/08/04 11:55:49;;;;;;;3.67;3.22;;;;;;;33.91;28.95;97883.50;5010689;28;20049;-74
2022/08/04 11:58:15;;;;;;;3.75;3.38;;;;;;;34.05;29.24;97878.63;5010221;28;20100;-73
2022/08/04 12:00:48;;;;;;;3.70;2.90;;;;;;;33.97;29.16;97877.25;5010337;28;20033;-74
2022/08/04 12:03:24;;;;;;;4.40;3.33;;;;;;;33.75;29.27;97874.25;5010434;28;20033;-75
2022/08/04 12:05:55;;;;;;;6.13;3.20;;;;;;;34.14;28.94;97876.72;5010584;28;20463;-74
2022/08/04 12:08:35;;;;;;;4.63;3.20;;;;;;;34.36;28.76;97883.31;5010362;28;20033;-74
2022/08/04 12:11:22;;;;;;;3.42;3.05;;;;;;;34.19;29.03;97872.50;5010421;28;20141;-74
2022/08/04 12:14:13;;;;;;;4.28;3.20;;;;;;;34.04;28.34;97862.81;5010557;28;20487;-74
2022/08/04 12:16:52;;;;;;;3.65;3.20;;;;;;;33.48;28.84;97857.63;4992992;28;20030;-72
2022/08/04 12:19:42;;;;;;;3.28;2.92;;;;;;;33.22;29.65;97855.94;5014209;28;20029;-76
2022/08/04 12:22:17;;;;;;;3.65;3.28;;;;;;;33.32;29.37;97854.84;5012855;28;20534;-76